sensor_id;sensor_type;location;lat;lon;timestamp;P1;durP1;ratioP1;P2;durP2;ratioP2
58123;SDS011;46725;48.068;20.832;2023-04-03T00:02:01;1.85;;;0.63;;
58123;SDS011;46725;48.068;20.832;2023-04-03T00:04:27;2.20;;;0.80;;
58123;SDS011;46725;48.068;20.832;2023-04-03T00:06:53;2.00;;;0.77;;
58123;SDS011;46725;48.068;20.832;2023-04-03T00:09:19;2.60;;;1.00;;
58123;SDS011;46725;48.068;20.832;2023-04-03T00:11:45;2.30;;;0.80;;
58123;SDS011;46725;48.068;20.832;2023-04-03T00:14:12;2.10;;;0.82;;
58123;SDS011;46725;48.068;20.832;2023-04-03T00:16:38;2.58;;;0.90;;
58123;SDS011;46725;48.068;20.832;2023-04-03T00:19:04;2.30;;;0.70;;
58123;SDS011;46725;48.068;20.832;2023-04-03T00:21:30;2.05;;;0.70;;
58123;SDS011;46725;48.068;20.832;2023-04-03T00:23:56;2.25;;;0.80;;
58123;SDS011;46725;48.068;20.832;2023-04-03T00:26:22;2.33;;;0.90;;
58123;SDS011;46725;48.068;20.832;2023-04-03T00:28:48;2.08;;;0.65;;
58123;SDS011;46725;48.068;20.832;2023-04-03T00:31:15;2.50;;;0.90;;
58123;SDS011;46725;48.068;20.832;2023-04-03T00:33:41;2.88;;;0.90;;
58123;SDS011;46725;48.068;20.832;2023-04-03T00:36:08;3.47;;;1.00;;
58123;SDS011;46725;48.068;20.832;2023-04-03T00:38:35;2.45;;;1.02;;
58123;SDS011;46725;48.068;20.832;2023-04-03T00:41:01;2.97;;;0.90;;
58123;SDS011;46725;48.068;20.832;2023-04-03T00:43:28;2.38;;;1.00;;
58123;SDS011;46725;48.068;20.832;2023-04-03T00:45:55;2.03;;;0.80;;
58123;SDS011;46725;48.068;20.832;2023-04-03T00:48:22;2.22;;;0.90;;
58123;SDS011;46725;48.068;20.832;2023-04-03T00:50:50;2.35;;;1.10;;
58123;SDS011;46725;48.068;20.832;2023-04-03T00:53:18;2.60;;;1.00;;
58123;SDS011;46725;48.068;20.832;2023-04-03T00:55:45;2.83;;;1.00;;
58123;SDS011;46725;48.068;20.832;2023-04-03T00:58:12;2.60;;;1.05;;
58123;SDS011;46725;48.068;20.832;2023-04-03T01:00:40;3.85;;;1.38;;
58123;SDS011;46725;48.068;20.832;2023-04-03T01:03:08;2.80;;;1.10;;
58123;SDS011;46725;48.068;20.832;2023-04-03T01:05:35;2.20;;;0.90;;
58123;SDS011;46725;48.068;20.832;2023-04-03T01:08:01;2.63;;;1.00;;
58123;SDS011;46725;48.068;20.832;2023-04-03T01:10:27;2.90;;;1.23;;
58123;SDS011;46725;48.068;20.832;2023-04-03T01:12:53;2.40;;;0.98;;
58123;SDS011;46725;48.068;20.832;2023-04-03T01:15:21;2.28;;;0.90;;
58123;SDS011;46725;48.068;20.832;2023-04-03T01:17:52;2.30;;;0.80;;
58123;SDS011;46725;48.068;20.832;2023-04-03T01:28:21;2.35;;;0.93;;
58123;SDS011;46725;48.068;20.832;2023-04-03T01:30:48;2.22;;;0.90;;
58123;SDS011;46725;48.068;20.832;2023-04-03T01:33:16;2.40;;;0.70;;
58123;SDS011;46725;48.068;20.832;2023-04-03T01:35:42;1.92;;;0.73;;
58123;SDS011;46725;48.068;20.832;2023-04-03T01:38:08;3.85;;;0.82;;
58123;SDS011;46725;48.068;20.832;2023-04-03T01:40:35;3.30;;;1.25;;
58123;SDS011;46725;48.068;20.832;2023-04-03T01:43:01;2.03;;;0.93;;
58123;SDS011;46725;48.068;20.832;2023-04-03T01:45:27;2.05;;;0.75;;
58123;SDS011;46725;48.068;20.832;2023-04-03T01:47:53;2.05;;;0.82;;
58123;SDS011;46725;48.068;20.832;2023-04-03T01:50:20;1.95;;;0.80;;
58123;SDS011;46725;48.068;20.832;2023-04-03T01:52:46;2.70;;;0.93;;
58123;SDS011;46725;48.068;20.832;2023-04-03T01:55:12;2.72;;;0.82;;
58123;SDS011;46725;48.068;20.832;2023-04-03T01:57:38;2.03;;;0.75;;
58123;SDS011;46725;48.068;20.832;2023-04-03T02:00:04;2.25;;;0.90;;
58123;SDS011;46725;48.068;20.832;2023-04-03T02:02:30;3.00;;;1.20;;
58123;SDS011;46725;48.068;20.832;2023-04-03T02:04:57;2.80;;;1.10;;
58123;SDS011;46725;48.068;20.832;2023-04-03T02:07:23;3.88;;;1.50;;
58123;SDS011;46725;48.068;20.832;2023-04-03T02:09:49;3.38;;;1.30;;
58123;SDS011;46725;48.068;20.832;2023-04-03T02:12:15;5.47;;;2.17;;
58123;SDS011;46725;48.068;20.832;2023-04-03T02:14:41;3.78;;;1.52;;
58123;SDS011;46725;48.068;20.832;2023-04-03T02:17:07;3.17;;;1.38;;
58123;SDS011;46725;48.068;20.832;2023-04-03T02:19:34;4.55;;;1.80;;
58123;SDS011;46725;48.068;20.832;2023-04-03T02:22:01;3.65;;;1.50;;
58123;SDS011;46725;48.068;20.832;2023-04-03T02:24:27;4.50;;;1.60;;
58123;SDS011;46725;48.068;20.832;2023-04-03T02:26:53;3.75;;;1.42;;
58123;SDS011;46725;48.068;20.832;2023-04-03T02:29:19;5.43;;;1.50;;
58123;SDS011;46725;48.068;20.832;2023-04-03T02:31:45;7.13;;;1.25;;
58123;SDS011;46725;48.068;20.832;2023-04-03T02:34:11;3.28;;;1.38;;
58123;SDS011;46725;48.068;20.832;2023-04-03T02:36:38;3.08;;;1.17;;
58123;SDS011;46725;48.068;20.832;2023-04-03T02:39:04;4.95;;;1.67;;
58123;SDS011;46725;48.068;20.832;2023-04-03T02:41:30;5.05;;;2.30;;
58123;SDS011;46725;48.068;20.832;2023-04-03T02:44:03;6.53;;;2.65;;
58123;SDS011;46725;48.068;20.832;2023-04-03T02:46:30;6.55;;;2.70;;
58123;SDS011;46725;48.068;20.832;2023-04-03T02:48:56;5.75;;;2.58;;
58123;SDS011;46725;48.068;20.832;2023-04-03T02:51:23;6.35;;;2.60;;
58123;SDS011;46725;48.068;20.832;2023-04-03T02:53:49;5.20;;;2.22;;
58123;SDS011;46725;48.068;20.832;2023-04-03T02:56:15;4.72;;;1.90;;
58123;SDS011;46725;48.068;20.832;2023-04-03T02:58:43;3.83;;;1.58;;
58123;SDS011;46725;48.068;20.832;2023-04-03T03:01:09;3.08;;;1.30;;
58123;SDS011;46725;48.068;20.832;2023-04-03T03:03:35;4.47;;;1.67;;
58123;SDS011;46725;48.068;20.832;2023-04-03T03:06:08;3.50;;;1.60;;
58123;SDS011;46725;48.068;20.832;2023-04-03T03:08:34;6.07;;;1.95;;
58123;SDS011;46725;48.068;20.832;2023-04-03T03:11:01;4.32;;;1.88;;
58123;SDS011;46725;48.068;20.832;2023-04-03T03:13:27;6.20;;;1.77;;
58123;SDS011;46725;48.068;20.832;2023-04-03T03:15:53;4.10;;;1.52;;
58123;SDS011;46725;48.068;20.832;2023-04-03T03:18:19;4.78;;;1.85;;
58123;SDS011;46725;48.068;20.832;2023-04-03T03:20:45;8.50;;;3.15;;
58123;SDS011;46725;48.068;20.832;2023-04-03T03:23:11;11.98;;;4.70;;
58123;SDS011;46725;48.068;20.832;2023-04-03T03:25:38;14.85;;;6.38;;
58123;SDS011;46725;48.068;20.832;2023-04-03T03:28:05;16.58;;;7.13;;
58123;SDS011;46725;48.068;20.832;2023-04-03T03:30:31;11.82;;;5.57;;
58123;SDS011;46725;48.068;20.832;2023-04-03T03:32:57;15.75;;;7.25;;
58123;SDS011;46725;48.068;20.832;2023-04-03T03:35:23;16.10;;;7.35;;
58123;SDS011;46725;48.068;20.832;2023-04-03T03:37:49;29.35;;;12.75;;
58123;SDS011;46725;48.068;20.832;2023-04-03T03:40:15;24.88;;;13.35;;
58123;SDS011;46725;48.068;20.832;2023-04-03T03:42:41;23.92;;;12.52;;
58123;SDS011;46725;48.068;20.832;2023-04-03T03:45:08;23.77;;;13.55;;
58123;SDS011;46725;48.068;20.832;2023-04-03T03:47:34;21.70;;;11.95;;
58123;SDS011;46725;48.068;20.832;2023-04-03T03:50:00;15.73;;;8.98;;
58123;SDS011;46725;48.068;20.832;2023-04-03T03:52:26;16.60;;;8.02;;
58123;SDS011;46725;48.068;20.832;2023-04-03T03:54:53;14.15;;;7.22;;
58123;SDS011;46725;48.068;20.832;2023-04-03T03:57:19;11.93;;;5.75;;
58123;SDS011;46725;48.068;20.832;2023-04-03T03:59:45;10.35;;;4.97;;
58123;SDS011;46725;48.068;20.832;2023-04-03T04:02:12;8.07;;;4.22;;
58123;SDS011;46725;48.068;20.832;2023-04-03T04:04:38;8.63;;;4.47;;
58123;SDS011;46725;48.068;20.832;2023-04-03T04:07:04;8.52;;;3.67;;
58123;SDS011;46725;48.068;20.832;2023-04-03T04:09:30;6.50;;;2.95;;
58123;SDS011;46725;48.068;20.832;2023-04-03T04:11:56;5.78;;;3.20;;
58123;SDS011;46725;48.068;20.832;2023-04-03T04:14:22;12.52;;;5.15;;
58123;SDS011;46725;48.068;20.832;2023-04-03T04:16:48;9.63;;;4.60;;
58123;SDS011;46725;48.068;20.832;2023-04-03T04:19:15;8.45;;;3.70;;
58123;SDS011;46725;48.068;20.832;2023-04-03T04:21:41;7.95;;;4.05;;
58123;SDS011;46725;48.068;20.832;2023-04-03T04:24:07;6.38;;;3.75;;
58123;SDS011;46725;48.068;20.832;2023-04-03T04:26:33;5.80;;;2.80;;
58123;SDS011;46725;48.068;20.832;2023-04-03T04:29:00;6.25;;;2.75;;
58123;SDS011;46725;48.068;20.832;2023-04-03T04:31:26;7.47;;;3.20;;
58123;SDS011;46725;48.068;20.832;2023-04-03T04:33:52;7.28;;;2.70;;
58123;SDS011;46725;48.068;20.832;2023-04-03T04:36:18;5.72;;;2.00;;
58123;SDS011;46725;48.068;20.832;2023-04-03T04:38:45;4.03;;;1.90;;
58123;SDS011;46725;48.068;20.832;2023-04-03T04:41:11;5.07;;;1.92;;
58123;SDS011;46725;48.068;20.832;2023-04-03T04:43:37;4.03;;;1.77;;
58123;SDS011;46725;48.068;20.832;2023-04-03T04:46:04;4.13;;;1.88;;
58123;SDS011;46725;48.068;20.832;2023-04-03T04:48:31;6.57;;;1.92;;
58123;SDS011;46725;48.068;20.832;2023-04-03T04:50:57;5.10;;;2.03;;
58123;SDS011;46725;48.068;20.832;2023-04-03T04:53:23;5.80;;;2.25;;
58123;SDS011;46725;48.068;20.832;2023-04-03T04:55:49;5.15;;;2.15;;
58123;SDS011;46725;48.068;20.832;2023-04-03T04:58:15;8.25;;;3.13;;
58123;SDS011;46725;48.068;20.832;2023-04-03T05:00:41;5.65;;;2.70;;
58123;SDS011;46725;48.068;20.832;2023-04-03T05:03:07;7.47;;;3.15;;
58123;SDS011;46725;48.068;20.832;2023-04-03T05:05:33;6.95;;;2.70;;
58123;SDS011;46725;48.068;20.832;2023-04-03T05:08:00;6.60;;;2.38;;
58123;SDS011;46725;48.068;20.832;2023-04-03T05:10:27;8.13;;;3.58;;
58123;SDS011;46725;48.068;20.832;2023-04-03T05:12:53;10.00;;;3.90;;
58123;SDS011;46725;48.068;20.832;2023-04-03T05:15:19;6.82;;;3.00;;
58123;SDS011;46725;48.068;20.832;2023-04-03T05:17:45;3.70;;;1.65;;
58123;SDS011;46725;48.068;20.832;2023-04-03T05:20:12;3.95;;;1.65;;
58123;SDS011;46725;48.068;20.832;2023-04-03T05:22:38;3.97;;;1.77;;
58123;SDS011;46725;48.068;20.832;2023-04-03T05:25:04;3.63;;;1.50;;
58123;SDS011;46725;48.068;20.832;2023-04-03T05:27:31;3.55;;;1.40;;
58123;SDS011;46725;48.068;20.832;2023-04-03T05:29:57;3.20;;;1.35;;
58123;SDS011;46725;48.068;20.832;2023-04-03T05:32:24;4.35;;;1.70;;
58123;SDS011;46725;48.068;20.832;2023-04-03T05:34:52;3.60;;;1.30;;
58123;SDS011;46725;48.068;20.832;2023-04-03T05:37:18;3.42;;;1.10;;
58123;SDS011;46725;48.068;20.832;2023-04-03T05:39:45;2.72;;;1.00;;
58123;SDS011;46725;48.068;20.832;2023-04-03T05:42:11;5.18;;;1.17;;
58123;SDS011;46725;48.068;20.832;2023-04-03T05:44:38;3.25;;;1.20;;
58123;SDS011;46725;48.068;20.832;2023-04-03T05:47:04;2.95;;;1.00;;
58123;SDS011;46725;48.068;20.832;2023-04-03T05:49:30;4.07;;;1.35;;
58123;SDS011;46725;48.068;20.832;2023-04-03T05:51:56;3.10;;;1.20;;
58123;SDS011;46725;48.068;20.832;2023-04-03T05:54:26;4.30;;;1.33;;
58123;SDS011;46725;48.068;20.832;2023-04-03T05:56:53;4.55;;;1.40;;
58123;SDS011;46725;48.068;20.832;2023-04-03T05:59:19;1.90;;;0.77;;
58123;SDS011;46725;48.068;20.832;2023-04-03T06:01:46;2.58;;;0.93;;
58123;SDS011;46725;48.068;20.832;2023-04-03T06:04:12;2.85;;;0.70;;
58123;SDS011;46725;48.068;20.832;2023-04-03T06:06:43;2.47;;;0.80;;
58123;SDS011;46725;48.068;20.832;2023-04-03T06:09:10;2.22;;;0.70;;
58123;SDS011;46725;48.068;20.832;2023-04-03T06:11:36;1.65;;;0.57;;
58123;SDS011;46725;48.068;20.832;2023-04-03T06:14:02;2.33;;;0.70;;
58123;SDS011;46725;48.068;20.832;2023-04-03T06:16:28;2.92;;;0.85;;
58123;SDS011;46725;48.068;20.832;2023-04-03T06:18:54;1.98;;;0.70;;
58123;SDS011;46725;48.068;20.832;2023-04-03T06:21:21;1.88;;;0.68;;
58123;SDS011;46725;48.068;20.832;2023-04-03T06:23:47;1.95;;;0.60;;
58123;SDS011;46725;48.068;20.832;2023-04-03T06:26:13;1.45;;;0.50;;
58123;SDS011;46725;48.068;20.832;2023-04-03T06:28:39;2.47;;;0.68;;
58123;SDS011;46725;48.068;20.832;2023-04-03T06:31:05;1.88;;;0.60;;
58123;SDS011;46725;48.068;20.832;2023-04-03T06:33:32;2.85;;;0.68;;
58123;SDS011;46725;48.068;20.832;2023-04-03T06:35:58;2.65;;;0.70;;
58123;SDS011;46725;48.068;20.832;2023-04-03T06:38:24;1.40;;;0.40;;
58123;SDS011;46725;48.068;20.832;2023-04-03T06:40:50;1.60;;;0.50;;
58123;SDS011;46725;48.068;20.832;2023-04-03T06:43:17;1.27;;;0.47;;
58123;SDS011;46725;48.068;20.832;2023-04-03T06:45:43;2.33;;;0.63;;
58123;SDS011;46725;48.068;20.832;2023-04-03T06:48:09;3.15;;;0.70;;
58123;SDS011;46725;48.068;20.832;2023-04-03T06:50:35;1.77;;;0.60;;
58123;SDS011;46725;48.068;20.832;2023-04-03T06:53:01;1.52;;;0.60;;
58123;SDS011;46725;48.068;20.832;2023-04-03T06:55:28;2.38;;;0.80;;
58123;SDS011;46725;48.068;20.832;2023-04-03T06:57:54;6.18;;;0.50;;
58123;SDS011;46725;48.068;20.832;2023-04-03T07:00:20;1.73;;;0.60;;
58123;SDS011;46725;48.068;20.832;2023-04-03T07:02:46;1.67;;;0.60;;
58123;SDS011;46725;48.068;20.832;2023-04-03T07:05:13;1.30;;;0.52;;
58123;SDS011;46725;48.068;20.832;2023-04-03T07:07:39;3.22;;;0.52;;
58123;SDS011;46725;48.068;20.832;2023-04-03T07:10:06;1.45;;;0.52;;
58123;SDS011;46725;48.068;20.832;2023-04-03T07:12:33;0.95;;;0.50;;
58123;SDS011;46725;48.068;20.832;2023-04-03T07:14:59;1.00;;;0.40;;
58123;SDS011;46725;48.068;20.832;2023-04-03T07:17:25;2.03;;;0.50;;
58123;SDS011;46725;48.068;20.832;2023-04-03T07:19:51;1.70;;;0.50;;
58123;SDS011;46725;48.068;20.832;2023-04-03T07:22:18;1.60;;;0.52;;
58123;SDS011;46725;48.068;20.832;2023-04-03T07:24:44;4.90;;;0.63;;
58123;SDS011;46725;48.068;20.832;2023-04-03T07:27:11;1.55;;;0.50;;
58123;SDS011;46725;48.068;20.832;2023-04-03T07:29:37;1.13;;;0.50;;
58123;SDS011;46725;48.068;20.832;2023-04-03T07:32:04;1.90;;;0.68;;
58123;SDS011;46725;48.068;20.832;2023-04-03T07:34:30;2.17;;;0.77;;
58123;SDS011;46725;48.068;20.832;2023-04-03T07:36:57;2.85;;;1.00;;
58123;SDS011;46725;48.068;20.832;2023-04-03T07:39:24;4.32;;;0.98;;
58123;SDS011;46725;48.068;20.832;2023-04-03T07:41:50;1.27;;;0.45;;
58123;SDS011;46725;48.068;20.832;2023-04-03T07:44:17;2.88;;;0.77;;
58123;SDS011;46725;48.068;20.832;2023-04-03T07:46:43;2.60;;;0.80;;
58123;SDS011;46725;48.068;20.832;2023-04-03T07:49:09;2.58;;;0.80;;
58123;SDS011;46725;48.068;20.832;2023-04-03T07:51:35;3.10;;;0.82;;
58123;SDS011;46725;48.068;20.832;2023-04-03T07:54:01;1.85;;;0.70;;
58123;SDS011;46725;48.068;20.832;2023-04-03T07:56:27;1.73;;;0.60;;
58123;SDS011;46725;48.068;20.832;2023-04-03T07:58:53;0.95;;;0.40;;
58123;SDS011;46725;48.068;20.832;2023-04-03T08:01:20;2.00;;;0.63;;
58123;SDS011;46725;48.068;20.832;2023-04-03T08:03:46;1.98;;;0.60;;
58123;SDS011;46725;48.068;20.832;2023-04-03T08:06:12;1.50;;;0.55;;
58123;SDS011;46725;48.068;20.832;2023-04-03T08:08:40;2.40;;;0.95;;
58123;SDS011;46725;48.068;20.832;2023-04-03T08:11:06;1.10;;;0.40;;
58123;SDS011;46725;48.068;20.832;2023-04-03T08:13:33;1.80;;;0.52;;
58123;SDS011;46725;48.068;20.832;2023-04-03T08:16:11;1.30;;;0.50;;
58123;SDS011;46725;48.068;20.832;2023-04-03T08:18:37;2.38;;;0.70;;
58123;SDS011;46725;48.068;20.832;2023-04-03T08:21:10;0.98;;;0.40;;
58123;SDS011;46725;48.068;20.832;2023-04-03T08:23:38;1.65;;;0.50;;
58123;SDS011;46725;48.068;20.832;2023-04-03T08:26:14;1.40;;;0.52;;
58123;SDS011;46725;48.068;20.832;2023-04-03T08:28:40;1.42;;;0.50;;
58123;SDS011;46725;48.068;20.832;2023-04-03T08:31:08;2.47;;;0.60;;
58123;SDS011;46725;48.068;20.832;2023-04-03T08:33:36;2.00;;;0.57;;
58123;SDS011;46725;48.068;20.832;2023-04-03T08:36:03;1.65;;;0.70;;
58123;SDS011;46725;48.068;20.832;2023-04-03T08:38:29;1.92;;;0.60;;
58123;SDS011;46725;48.068;20.832;2023-04-03T08:41:11;2.17;;;0.70;;
58123;SDS011;46725;48.068;20.832;2023-04-03T08:43:50;1.67;;;0.55;;
58123;SDS011;46725;48.068;20.832;2023-04-03T08:46:18;1.40;;;0.43;;
58123;SDS011;46725;48.068;20.832;2023-04-03T08:48:46;2.03;;;0.80;;
58123;SDS011;46725;48.068;20.832;2023-04-03T08:51:14;2.35;;;0.70;;
58123;SDS011;46725;48.068;20.832;2023-04-03T08:53:45;1.85;;;0.70;;
58123;SDS011;46725;48.068;20.832;2023-04-03T08:56:15;2.45;;;0.80;;
58123;SDS011;46725;48.068;20.832;2023-04-03T08:58:46;2.33;;;0.70;;
58123;SDS011;46725;48.068;20.832;2023-04-03T09:01:17;1.13;;;0.40;;
58123;SDS011;46725;48.068;20.832;2023-04-03T09:03:44;1.30;;;0.50;;
58123;SDS011;46725;48.068;20.832;2023-04-03T09:06:14;2.20;;;0.65;;
58123;SDS011;46725;48.068;20.832;2023-04-03T09:09:02;2.28;;;0.68;;
58123;SDS011;46725;48.068;20.832;2023-04-03T09:14:07;2.42;;;0.80;;
58123;SDS011;46725;48.068;20.832;2023-04-03T09:16:41;5.93;;;0.77;;
58123;SDS011;46725;48.068;20.832;2023-04-03T09:21:41;2.75;;;1.00;;
58123;SDS011;46725;48.068;20.832;2023-04-03T09:24:07;2.80;;;0.40;;
58123;SDS011;46725;48.068;20.832;2023-04-03T09:26:43;1.92;;;0.70;;
58123;SDS011;46725;48.068;20.832;2023-04-03T09:29:12;2.10;;;0.77;;
58123;SDS011;46725;48.068;20.832;2023-04-03T09:31:40;2.15;;;0.77;;
58123;SDS011;46725;48.068;20.832;2023-04-03T09:34:27;1.92;;;0.60;;
58123;SDS011;46725;48.068;20.832;2023-04-03T09:36:54;2.80;;;0.80;;
58123;SDS011;46725;48.068;20.832;2023-04-03T09:39:22;1.98;;;0.60;;
58123;SDS011;46725;48.068;20.832;2023-04-03T09:44:41;2.00;;;0.73;;
58123;SDS011;46725;48.068;20.832;2023-04-03T09:47:24;3.65;;;0.82;;
58123;SDS011;46725;48.068;20.832;2023-04-03T09:49:50;1.83;;;0.63;;
58123;SDS011;46725;48.068;20.832;2023-04-03T09:52:23;4.40;;;1.48;;
58123;SDS011;46725;48.068;20.832;2023-04-03T09:54:50;3.30;;;1.08;;
58123;SDS011;46725;48.068;20.832;2023-04-03T09:57:16;1.77;;;0.88;;
58123;SDS011;46725;48.068;20.832;2023-04-03T10:00:01;2.00;;;0.70;;
58123;SDS011;46725;48.068;20.832;2023-04-03T10:02:34;2.45;;;0.75;;
58123;SDS011;46725;48.068;20.832;2023-04-03T10:05:00;2.03;;;0.85;;
58123;SDS011;46725;48.068;20.832;2023-04-03T10:07:31;2.60;;;0.82;;
58123;SDS011;46725;48.068;20.832;2023-04-03T10:09:59;2.23;;;1.10;;
58123;SDS011;46725;48.068;20.832;2023-04-03T10:12:26;2.08;;;0.80;;
58123;SDS011;46725;48.068;20.832;2023-04-03T10:19:55;3.47;;;1.10;;
58123;SDS011;46725;48.068;20.832;2023-04-03T10:30:24;2.90;;;0.98;;
58123;SDS011;46725;48.068;20.832;2023-04-03T10:50:46;3.08;;;1.20;;
58123;SDS011;46725;48.068;20.832;2023-04-03T10:55:53;2.33;;;0.80;;
58123;SDS011;46725;48.068;20.832;2023-04-03T10:58:25;2.30;;;0.90;;
58123;SDS011;46725;48.068;20.832;2023-04-03T11:00:52;2.05;;;0.70;;
58123;SDS011;46725;48.068;20.832;2023-04-03T11:05:51;4.35;;;0.90;;
58123;SDS011;46725;48.068;20.832;2023-04-03T11:10:57;3.50;;;1.23;;
58123;SDS011;46725;48.068;20.832;2023-04-03T11:13:30;2.40;;;0.85;;
58123;SDS011;46725;48.068;20.832;2023-04-03T11:15:58;2.40;;;0.70;;
58123;SDS011;46725;48.068;20.832;2023-04-03T11:18:31;5.60;;;1.15;;
58123;SDS011;46725;48.068;20.832;2023-04-03T11:21:09;3.17;;;1.20;;
58123;SDS011;46725;48.068;20.832;2023-04-03T11:23:39;4.50;;;0.90;;
58123;SDS011;46725;48.068;20.832;2023-04-03T11:26:15;2.80;;;0.88;;
58123;SDS011;46725;48.068;20.832;2023-04-03T11:28:41;2.13;;;0.82;;
58123;SDS011;46725;48.068;20.832;2023-04-03T11:31:30;2.83;;;1.08;;
58123;SDS011;46725;48.068;20.832;2023-04-03T11:34:40;2.13;;;0.80;;
58123;SDS011;46725;48.068;20.832;2023-04-03T11:36:51;2.92;;;1.08;;
58123;SDS011;46725;48.068;20.832;2023-04-03T11:47:45;2.53;;;0.95;;
58123;SDS011;46725;48.068;20.832;2023-04-03T11:52:58;2.05;;;0.88;;
58123;SDS011;46725;48.068;20.832;2023-04-03T12:16:24;3.88;;;1.13;;
58123;SDS011;46725;48.068;20.832;2023-04-03T12:22:04;3.55;;;1.40;;
58123;SDS011;46725;48.068;20.832;2023-04-03T12:29:56;2.45;;;1.00;;
58123;SDS011;46725;48.068;20.832;2023-04-03T12:39:52;2.45;;;1.15;;
58123;SDS011;46725;48.068;20.832;2023-04-03T12:44:53;3.55;;;1.10;;
58123;SDS011;46725;48.068;20.832;2023-04-03T12:47:23;3.58;;;1.67;;
58123;SDS011;46725;48.068;20.832;2023-04-03T12:49:51;2.95;;;1.27;;
58123;SDS011;46725;48.068;20.832;2023-04-03T12:52:30;3.97;;;1.13;;
58123;SDS011;46725;48.068;20.832;2023-04-03T12:54:58;3.33;;;0.93;;
58123;SDS011;46725;48.068;20.832;2023-04-03T12:57:26;2.05;;;0.85;;
58123;SDS011;46725;48.068;20.832;2023-04-03T12:59:52;2.72;;;1.23;;
58123;SDS011;46725;48.068;20.832;2023-04-03T13:02:21;2.95;;;1.27;;
58123;SDS011;46725;48.068;20.832;2023-04-03T13:04:48;2.90;;;1.35;;
58123;SDS011;46725;48.068;20.832;2023-04-03T13:07:22;3.35;;;1.42;;
58123;SDS011;46725;48.068;20.832;2023-04-03T13:09:57;3.80;;;1.80;;
58123;SDS011;46725;48.068;20.832;2023-04-03T13:12:24;3.72;;;1.33;;
58123;SDS011;46725;48.068;20.832;2023-04-03T13:14:57;4.35;;;1.40;;
58123;SDS011;46725;48.068;20.832;2023-04-03T13:17:23;3.40;;;1.30;;
58123;SDS011;46725;48.068;20.832;2023-04-03T13:19:50;4.32;;;1.60;;
58123;SDS011;46725;48.068;20.832;2023-04-03T13:24:43;2.25;;;0.90;;
58123;SDS011;46725;48.068;20.832;2023-04-03T13:27:10;3.65;;;1.20;;
58123;SDS011;46725;48.068;20.832;2023-04-03T13:29:37;2.28;;;0.90;;
58123;SDS011;46725;48.068;20.832;2023-04-03T13:32:04;2.35;;;0.95;;
58123;SDS011;46725;48.068;20.832;2023-04-03T13:34:38;3.42;;;1.20;;
58123;SDS011;46725;48.068;20.832;2023-04-03T13:37:06;5.80;;;1.75;;
58123;SDS011;46725;48.068;20.832;2023-04-03T13:39:37;3.88;;;1.63;;
58123;SDS011;46725;48.068;20.832;2023-04-03T13:42:25;2.80;;;1.30;;
58123;SDS011;46725;48.068;20.832;2023-04-03T13:45:05;4.75;;;1.50;;
58123;SDS011;46725;48.068;20.832;2023-04-03T13:47:37;3.05;;;1.40;;
58123;SDS011;46725;48.068;20.832;2023-04-03T13:50:13;3.25;;;1.40;;
58123;SDS011;46725;48.068;20.832;2023-04-03T13:52:41;3.80;;;1.10;;
58123;SDS011;46725;48.068;20.832;2023-04-03T13:57:56;4.45;;;1.10;;
58123;SDS011;46725;48.068;20.832;2023-04-03T14:05:42;4.10;;;1.92;;
58123;SDS011;46725;48.068;20.832;2023-04-03T14:08:10;3.30;;;1.60;;
58123;SDS011;46725;48.068;20.832;2023-04-03T14:10:36;4.95;;;1.65;;
58123;SDS011;46725;48.068;20.832;2023-04-03T14:13:02;4.78;;;1.63;;
58123;SDS011;46725;48.068;20.832;2023-04-03T14:15:28;3.60;;;1.48;;
58123;SDS011;46725;48.068;20.832;2023-04-03T14:17:56;3.42;;;1.30;;
58123;SDS011;46725;48.068;20.832;2023-04-03T14:20:23;3.35;;;1.20;;
58123;SDS011;46725;48.068;20.832;2023-04-03T14:22:49;3.63;;;1.60;;
58123;SDS011;46725;48.068;20.832;2023-04-03T14:25:16;3.00;;;1.33;;
58123;SDS011;46725;48.068;20.832;2023-04-03T14:27:43;4.88;;;1.75;;
58123;SDS011;46725;48.068;20.832;2023-04-03T14:30:16;4.38;;;1.73;;
58123;SDS011;46725;48.068;20.832;2023-04-03T14:32:42;4.88;;;2.28;;
58123;SDS011;46725;48.068;20.832;2023-04-03T14:35:08;3.20;;;1.45;;
58123;SDS011;46725;48.068;20.832;2023-04-03T14:37:34;8.25;;;3.78;;
58123;SDS011;46725;48.068;20.832;2023-04-03T14:40:01;8.23;;;3.55;;
58123;SDS011;46725;48.068;20.832;2023-04-03T14:42:33;6.88;;;2.05;;
58123;SDS011;46725;48.068;20.832;2023-04-03T14:45:00;5.07;;;2.50;;
58123;SDS011;46725;48.068;20.832;2023-04-03T14:47:28;4.55;;;2.20;;
58123;SDS011;46725;48.068;20.832;2023-04-03T14:49:55;5.32;;;2.42;;
58123;SDS011;46725;48.068;20.832;2023-04-03T14:52:23;8.50;;;1.83;;
58123;SDS011;46725;48.068;20.832;2023-04-03T14:54:50;4.35;;;1.90;;
58123;SDS011;46725;48.068;20.832;2023-04-03T14:57:17;3.53;;;1.75;;
58123;SDS011;46725;48.068;20.832;2023-04-03T14:59:44;4.22;;;1.50;;
58123;SDS011;46725;48.068;20.832;2023-04-03T15:04:48;4.68;;;2.10;;
58123;SDS011;46725;48.068;20.832;2023-04-03T15:07:14;3.15;;;1.35;;
58123;SDS011;46725;48.068;20.832;2023-04-03T15:09:41;3.40;;;1.40;;
58123;SDS011;46725;48.068;20.832;2023-04-03T15:12:08;4.18;;;1.70;;
58123;SDS011;46725;48.068;20.832;2023-04-03T15:14:34;3.50;;;1.52;;
58123;SDS011;46725;48.068;20.832;2023-04-03T15:17:00;2.88;;;1.23;;
58123;SDS011;46725;48.068;20.832;2023-04-03T15:19:27;4.00;;;1.67;;
58123;SDS011;46725;48.068;20.832;2023-04-03T15:21:53;3.85;;;1.60;;
58123;SDS011;46725;48.068;20.832;2023-04-03T15:24:19;5.95;;;1.70;;
58123;SDS011;46725;48.068;20.832;2023-04-03T15:26:46;4.07;;;1.98;;
58123;SDS011;46725;48.068;20.832;2023-04-03T15:29:12;4.88;;;2.40;;
58123;SDS011;46725;48.068;20.832;2023-04-03T15:31:38;8.02;;;3.38;;
58123;SDS011;46725;48.068;20.832;2023-04-03T15:34:04;7.43;;;1.90;;
58123;SDS011;46725;48.068;20.832;2023-04-03T15:36:30;5.28;;;2.17;;
58123;SDS011;46725;48.068;20.832;2023-04-03T15:38:56;5.65;;;1.98;;
58123;SDS011;46725;48.068;20.832;2023-04-03T15:41:23;4.15;;;2.00;;
58123;SDS011;46725;48.068;20.832;2023-04-03T15:43:49;5.15;;;2.95;;
58123;SDS011;46725;48.068;20.832;2023-04-03T15:46:15;5.03;;;2.15;;
58123;SDS011;46725;48.068;20.832;2023-04-03T15:48:41;6.50;;;2.22;;
58123;SDS011;46725;48.068;20.832;2023-04-03T15:51:07;6.32;;;2.70;;
58123;SDS011;46725;48.068;20.832;2023-04-03T15:53:33;5.03;;;2.45;;
58123;SDS011;46725;48.068;20.832;2023-04-03T15:55:59;4.47;;;2.10;;
58123;SDS011;46725;48.068;20.832;2023-04-03T15:58:25;4.40;;;2.00;;
58123;SDS011;46725;48.068;20.832;2023-04-03T16:00:51;3.78;;;1.80;;
58123;SDS011;46725;48.068;20.832;2023-04-03T16:03:18;5.55;;;1.95;;
58123;SDS011;46725;48.068;20.832;2023-04-03T16:05:45;7.70;;;1.88;;
58123;SDS011;46725;48.068;20.832;2023-04-03T16:08:11;4.45;;;2.25;;
58123;SDS011;46725;48.068;20.832;2023-04-03T16:10:38;5.68;;;2.83;;
58123;SDS011;46725;48.068;20.832;2023-04-03T16:13:05;4.88;;;2.22;;
58123;SDS011;46725;48.068;20.832;2023-04-03T16:15:31;3.90;;;1.77;;
58123;SDS011;46725;48.068;20.832;2023-04-03T16:17:59;4.72;;;2.40;;
58123;SDS011;46725;48.068;20.832;2023-04-03T16:20:25;5.32;;;2.10;;
58123;SDS011;46725;48.068;20.832;2023-04-03T16:22:51;6.95;;;2.95;;
58123;SDS011;46725;48.068;20.832;2023-04-03T16:25:17;5.38;;;3.10;;
58123;SDS011;46725;48.068;20.832;2023-04-03T16:27:44;5.88;;;2.90;;
58123;SDS011;46725;48.068;20.832;2023-04-03T16:30:10;9.27;;;3.92;;
58123;SDS011;46725;48.068;20.832;2023-04-03T16:32:37;7.40;;;2.97;;
58123;SDS011;46725;48.068;20.832;2023-04-03T16:35:04;6.38;;;3.10;;